WMKKWMKM

Guest
Details From WMKK - Kuala Lumpur Intl - Sepang
To WMKM - Malacca
Flight Number -
Tags generated
Created
Modified
Stats Distance 44 nm / 81 km
Max Altitude 700 ft / 213 m
Waypoints 3
Social Downloads 1
Likes 0
Share VATSIM

Download

Looking for another format? Having issues loading an existing format? Contact us
Advertisement - Login to hide

Notes

Basic altitude profile: - Ascent Rate: 2500ft/min - Ascent Speed: 250kts - Cruise Altitude: 35000ft - Cruise Speed: 420kts - Descent Rate: 1500ft/min - Descent Speed: 250kts Options: - Use NATs: yes - Use PACOTS: yes - Use low airways: yes - Use high airways: yes

Route

WMKK VKL WMKM

ID Type Via Altitude Latitude Longitude Leg Dist Tot Dist Heading (true) Name
O WMKK APT - 0 ft / 0 m 2.74558˚ 101.70991˚ - 0 nm - Kuala Lumpur Intl - Sepang
VKL VOR - 700 ft / 213 m 2.72444˚ 101.73806˚ 2 nm 2 nm 127° / 127° KUALA LUMPUR VOR-DME
O WMKM APT - 0 ft / 0 m 2.26336˚ 102.25155˚ 41 nm 43 nm 132° / 132° Malacca

Altitude Profile

Advertisement - Login to hide

WMKK

Details ICAO WMKK (KUL)
Name Kuala Lumpur Intl - Sepang
Region Malaysia (Peninsular Malaysia)
Timezone Asia/Kuala_Lumpur (UTC+8.0)
Stats Elevation 70 ft / 21 m (AMSL)
Location 2.745578° 101.709913°
Runways 2
Magnetic Variation 0.000° E

METAR

WMKK 122300Z VRB02KT 5000 HZ FEW005 FEW017CB SCT140 BKN280 25/23 Q1011 NOSIG

Decode

TAF

TAF AMD WMKK 121905Z 1219/1400 07005KT 9000 FEW030 SCT140 BKN280 TEMPO 1219/1223 3000 TSRA FEW016CB SCT020 TEMPO 1304/1308 3000 TSRA FEW016CB SCT020

Decode

Departure Runways

ID Width Length Bearing (true) Bearing (mag) Surface Threshold Offset Overrun Length
14L 197 ft / 60 m 13,577 ft / 4,138 m 146.13° 146.13° Asphalt 500 ft / 152 m 0 ft / 0 m
14R 197 ft / 60 m 13,337 ft / 4,065 m 146.22° 146.22° Asphalt 500 ft / 152 m 0 ft / 0 m
32L 197 ft / 60 m 13,337 ft / 4,065 m 326.22° 326.22° Asphalt 500 ft / 152 m 0 ft / 0 m
32R 197 ft / 60 m 13,577 ft / 4,138 m 326.13° 326.13° Asphalt 500 ft / 152 m 0 ft / 0 m

WMKM

Details ICAO WMKM (MKZ)
Name Malacca
Region Malaysia (Peninsular Malaysia)
Timezone Asia/Kuala_Lumpur (UTC+8.0)
Stats Elevation 35 ft / 11 m (AMSL)
Location 2.263362° 102.251553°
Runways 1
Magnetic Variation 0.063° E

METAR

WMKM 122300Z 00000KT 9999 FEW010 BKN140 BKN270 25/23 Q1012

Decode

TAF

Not found

Destination Runways

ID Width Length Bearing (true) Bearing (mag) Surface Threshold Offset Overrun Length
03 121 ft / 37 m 4,523 ft / 1,379 m 29.93° 29.87° Asphalt 0 ft / 0 m 200 ft / 61 m
21 121 ft / 37 m 4,523 ft / 1,379 m 209.93° 209.87° Asphalt 0 ft / 0 m 200 ft / 61 m

Popular Alternatives